sensor_id;sensor_type;location;lat;lon;timestamp;temperature;humidity
59208;DHT22;44977;53.132;6.408;2022-10-31T00:02:16;13.00;99.90
59208;DHT22;44977;53.132;6.408;2022-10-31T00:07:16;13.00;99.90
59208;DHT22;44977;53.132;6.408;2022-10-31T00:12:17;12.90;99.90
59208;DHT22;44977;53.132;6.408;2022-10-31T00:17:18;12.80;99.90
59208;DHT22;44977;53.132;6.408;2022-10-31T00:22:19;12.80;99.90
59208;DHT22;44977;53.132;6.408;2022-10-31T00:27:19;12.70;99.90
59208;DHT22;44977;53.132;6.408;2022-10-31T00:32:20;12.70;99.90
59208;DHT22;44977;53.132;6.408;2022-10-31T00:37:21;12.70;99.90
59208;DHT22;44977;53.132;6.408;2022-10-31T00:42:21;12.60;99.90
59208;DHT22;44977;53.132;6.408;2022-10-31T00:47:22;12.60;99.90
59208;DHT22;44977;53.132;6.408;2022-10-31T00:52:23;12.50;99.90
59208;DHT22;44977;53.132;6.408;2022-10-31T00:57:23;12.50;99.90
59208;DHT22;44977;53.132;6.408;2022-10-31T01:02:24;12.40;99.90
59208;DHT22;44977;53.132;6.408;2022-10-31T01:07:24;12.40;99.90
59208;DHT22;44977;53.132;6.408;2022-10-31T01:12:25;12.40;99.90
59208;DHT22;44977;53.132;6.408;2022-10-31T01:17:26;12.40;99.90
59208;DHT22;44977;53.132;6.408;2022-10-31T01:22:26;12.40;99.90
59208;DHT22;44977;53.132;6.408;2022-10-31T01:27:27;12.30;99.90
59208;DHT22;44977;53.132;6.408;2022-10-31T01:32:28;12.30;99.90
59208;DHT22;44977;53.132;6.408;2022-10-31T01:37:31;12.30;99.90
59208;DHT22;44977;53.132;6.408;2022-10-31T01:42:32;12.30;99.90
59208;DHT22;44977;53.132;6.408;2022-10-31T01:47:41;12.30;99.90
59208;DHT22;44977;53.132;6.408;2022-10-31T01:52:46;12.20;99.90
59208;DHT22;44977;53.132;6.408;2022-10-31T01:57:51;12.20;99.90
59208;DHT22;44977;53.132;6.408;2022-10-31T02:02:52;12.20;99.90
59208;DHT22;44977;53.132;6.408;2022-10-31T02:08:00;12.20;99.90
59208;DHT22;44977;53.132;6.408;2022-10-31T02:13:05;12.10;99.90
59208;DHT22;44977;53.132;6.408;2022-10-31T02:18:07;12.10;99.90
59208;DHT22;44977;53.132;6.408;2022-10-31T02:33:57;12.00;99.90
59208;DHT22;44977;53.132;6.408;2022-10-31T02:50:07;11.90;99.90
59208;DHT22;44977;53.132;6.408;2022-10-31T02:55:38;11.80;99.90
59208;DHT22;44977;53.132;6.408;2022-10-31T03:00:40;11.80;99.90
59208;DHT22;44977;53.132;6.408;2022-10-31T03:05:51;11.80;99.90
59208;DHT22;44977;53.132;6.408;2022-10-31T03:11:03;11.70;99.90
59208;DHT22;44977;53.132;6.408;2022-10-31T03:21:47;11.70;99.90
59208;DHT22;44977;53.132;6.408;2022-10-31T03:26:53;11.60;99.90
59208;DHT22;44977;53.132;6.408;2022-10-31T03:31:59;11.50;99.90
59208;DHT22;44977;53.132;6.408;2022-10-31T03:37:04;11.50;99.90
59208;DHT22;44977;53.132;6.408;2022-10-31T03:47:08;11.40;99.90
59208;DHT22;44977;53.132;6.408;2022-10-31T03:52:24;11.40;99.90
59208;DHT22;44977;53.132;6.408;2022-10-31T03:57:34;11.30;99.90
59208;DHT22;44977;53.132;6.408;2022-10-31T04:02:47;11.30;99.90
59208;DHT22;44977;53.132;6.408;2022-10-31T04:07:53;11.20;99.90
59208;DHT22;44977;53.132;6.408;2022-10-31T04:13:00;11.20;99.90
59208;DHT22;44977;53.132;6.408;2022-10-31T04:18:04;11.10;99.90
59208;DHT22;44977;53.132;6.408;2022-10-31T04:23:17;11.10;99.90
59208;DHT22;44977;53.132;6.408;2022-10-31T04:28:18;11.00;99.90
59208;DHT22;44977;53.132;6.408;2022-10-31T04:33:20;11.00;99.90
59208;DHT22;44977;53.132;6.408;2022-10-31T04:38:20;10.90;99.90
59208;DHT22;44977;53.132;6.408;2022-10-31T04:43:22;10.90;99.90
59208;DHT22;44977;53.132;6.408;2022-10-31T04:48:22;10.80;99.90
59208;DHT22;44977;53.132;6.408;2022-10-31T04:53:23;10.70;99.90
59208;DHT22;44977;53.132;6.408;2022-10-31T04:58:24;10.70;99.90
59208;DHT22;44977;53.132;6.408;2022-10-31T05:03:24;10.60;99.90
59208;DHT22;44977;53.132;6.408;2022-10-31T05:08:25;10.60;99.90
59208;DHT22;44977;53.132;6.408;2022-10-31T05:13:26;10.50;99.90
59208;DHT22;44977;53.132;6.408;2022-10-31T05:18:26;10.50;99.90
59208;DHT22;44977;53.132;6.408;2022-10-31T05:23:27;10.50;99.90
59208;DHT22;44977;53.132;6.408;2022-10-31T05:28:27;10.50;99.90
59208;DHT22;44977;53.132;6.408;2022-10-31T05:33:28;10.40;99.90
59208;DHT22;44977;53.132;6.408;2022-10-31T05:38:29;10.40;99.90
59208;DHT22;44977;53.132;6.408;2022-10-31T05:43:29;10.40;99.90
59208;DHT22;44977;53.132;6.408;2022-10-31T05:48:30;10.40;99.90
59208;DHT22;44977;53.132;6.408;2022-10-31T05:53:31;10.40;99.90
59208;DHT22;44977;53.132;6.408;2022-10-31T05:58:31;10.30;99.90
59208;DHT22;44977;53.132;6.408;2022-10-31T06:03:32;10.30;99.90
59208;DHT22;44977;53.132;6.408;2022-10-31T06:08:33;10.20;99.90
59208;DHT22;44977;53.132;6.408;2022-10-31T06:13:33;10.20;99.90
59208;DHT22;44977;53.132;6.408;2022-10-31T06:18:34;10.20;99.90
59208;DHT22;44977;53.132;6.408;2022-10-31T06:23:35;10.20;99.90
59208;DHT22;44977;53.132;6.408;2022-10-31T06:28:35;10.10;99.90
59208;DHT22;44977;53.132;6.408;2022-10-31T06:33:36;10.10;99.90
59208;DHT22;44977;53.132;6.408;2022-10-31T06:38:37;10.00;99.90
59208;DHT22;44977;53.132;6.408;2022-10-31T06:43:37;10.00;99.90
59208;DHT22;44977;53.132;6.408;2022-10-31T06:48:40;10.00;99.90
59208;DHT22;44977;53.132;6.408;2022-10-31T06:53:41;10.00;99.90
59208;DHT22;44977;53.132;6.408;2022-10-31T06:58:41;9.90;99.90
59208;DHT22;44977;53.132;6.408;2022-10-31T07:03:42;9.90;99.90
59208;DHT22;44977;53.132;6.408;2022-10-31T07:08:43;9.90;99.90
59208;DHT22;44977;53.132;6.408;2022-10-31T07:13:43;9.90;99.90
59208;DHT22;44977;53.132;6.408;2022-10-31T07:18:44;10.00;99.90
59208;DHT22;44977;53.132;6.408;2022-10-31T07:23:47;10.00;99.90
59208;DHT22;44977;53.132;6.408;2022-10-31T07:28:49;10.00;99.90
59208;DHT22;44977;53.132;6.408;2022-10-31T07:33:50;10.10;99.90
59208;DHT22;44977;53.132;6.408;2022-10-31T07:38:51;10.20;99.90
59208;DHT22;44977;53.132;6.408;2022-10-31T07:43:51;10.30;99.90
59208;DHT22;44977;53.132;6.408;2022-10-31T07:48:52;10.50;99.90
59208;DHT22;44977;53.132;6.408;2022-10-31T07:53:53;10.60;99.90
59208;DHT22;44977;53.132;6.408;2022-10-31T07:58:53;10.80;99.90
59208;DHT22;44977;53.132;6.408;2022-10-31T08:03:54;10.90;99.90
59208;DHT22;44977;53.132;6.408;2022-10-31T08:08:55;11.10;99.90
59208;DHT22;44977;53.132;6.408;2022-10-31T08:13:55;11.30;99.90
59208;DHT22;44977;53.132;6.408;2022-10-31T08:18:56;11.50;99.90
59208;DHT22;44977;53.132;6.408;2022-10-31T08:23:57;11.70;99.90
59208;DHT22;44977;53.132;6.408;2022-10-31T08:28:57;11.80;99.90
59208;DHT22;44977;53.132;6.408;2022-10-31T08:33:58;11.90;99.90
59208;DHT22;44977;53.132;6.408;2022-10-31T08:38:59;12.00;99.90
59208;DHT22;44977;53.132;6.408;2022-10-31T08:44:00;12.20;99.90
59208;DHT22;44977;53.132;6.408;2022-10-31T08:49:00;12.30;99.90
59208;DHT22;44977;53.132;6.408;2022-10-31T08:54:01;12.50;99.90
59208;DHT22;44977;53.132;6.408;2022-10-31T08:59:01;12.60;99.90
59208;DHT22;44977;53.132;6.408;2022-10-31T09:04:02;12.70;99.90
59208;DHT22;44977;53.132;6.408;2022-10-31T09:09:03;12.90;99.90
59208;DHT22;44977;53.132;6.408;2022-10-31T09:14:04;13.00;99.90
59208;DHT22;44977;53.132;6.408;2022-10-31T09:19:04;13.20;99.90
59208;DHT22;44977;53.132;6.408;2022-10-31T09:24:05;13.40;99.90
59208;DHT22;44977;53.132;6.408;2022-10-31T09:29:06;13.40;99.90
59208;DHT22;44977;53.132;6.408;2022-10-31T09:34:09;13.60;99.90
59208;DHT22;44977;53.132;6.408;2022-10-31T09:39:10;13.80;99.90
59208;DHT22;44977;53.132;6.408;2022-10-31T09:44:25;13.90;99.90
59208;DHT22;44977;53.132;6.408;2022-10-31T09:54:46;14.20;99.90
59208;DHT22;44977;53.132;6.408;2022-10-31T09:59:48;14.30;99.90
59208;DHT22;44977;53.132;6.408;2022-10-31T10:05:03;14.40;99.90
59208;DHT22;44977;53.132;6.408;2022-10-31T10:21:16;15.00;99.90
59208;DHT22;44977;53.132;6.408;2022-10-31T10:26:22;15.00;99.90
59208;DHT22;44977;53.132;6.408;2022-10-31T10:31:31;15.10;99.90
59208;DHT22;44977;53.132;6.408;2022-10-31T10:41:41;15.30;99.90
59208;DHT22;44977;53.132;6.408;2022-10-31T10:46:56;15.20;99.90
59208;DHT22;44977;53.132;6.408;2022-10-31T10:52:37;15.10;99.90
59208;DHT22;44977;53.132;6.408;2022-10-31T10:57:58;15.10;99.90
59208;DHT22;44977;53.132;6.408;2022-10-31T11:03:00;15.20;99.90
59208;DHT22;44977;53.132;6.408;2022-10-31T11:08:01;15.30;99.90
59208;DHT22;44977;53.132;6.408;2022-10-31T11:18:21;15.40;99.90
59208;DHT22;44977;53.132;6.408;2022-10-31T11:23:24;15.40;99.90
59208;DHT22;44977;53.132;6.408;2022-10-31T11:28:26;15.40;99.90
59208;DHT22;44977;53.132;6.408;2022-10-31T11:33:45;15.40;99.90
59208;DHT22;44977;53.132;6.408;2022-10-31T11:38:46;15.30;99.90
59208;DHT22;44977;53.132;6.408;2022-10-31T11:43:54;15.30;99.90
59208;DHT22;44977;53.132;6.408;2022-10-31T11:48:56;15.30;99.90
59208;DHT22;44977;53.132;6.408;2022-10-31T11:53:58;15.30;99.90
59208;DHT22;44977;53.132;6.408;2022-10-31T11:59:06;15.30;99.90
59208;DHT22;44977;53.132;6.408;2022-10-31T12:04:14;15.30;99.90
59208;DHT22;44977;53.132;6.408;2022-10-31T12:09:22;15.30;99.90
59208;DHT22;44977;53.132;6.408;2022-10-31T12:47:02;15.40;99.90
59208;DHT22;44977;53.132;6.408;2022-10-31T12:52:39;15.40;99.90
59208;DHT22;44977;53.132;6.408;2022-10-31T12:57:47;15.40;99.90
59208;DHT22;44977;53.132;6.408;2022-10-31T13:02:59;15.40;99.90
59208;DHT22;44977;53.132;6.408;2022-10-31T13:13:27;15.50;99.90
59208;DHT22;44977;53.132;6.408;2022-10-31T13:18:34;15.50;99.90
59208;DHT22;44977;53.132;6.408;2022-10-31T13:23:37;15.50;99.90
59208;DHT22;44977;53.132;6.408;2022-10-31T13:28:57;15.50;99.90
59208;DHT22;44977;53.132;6.408;2022-10-31T13:34:08;15.50;99.90
59208;DHT22;44977;53.132;6.408;2022-10-31T13:39:23;15.60;99.90
59208;DHT22;44977;53.132;6.408;2022-10-31T13:44:28;15.50;99.90
59208;DHT22;44977;53.132;6.408;2022-10-31T13:54:34;15.60;99.90
59208;DHT22;44977;53.132;6.408;2022-10-31T13:59:37;15.60;99.90
59208;DHT22;44977;53.132;6.408;2022-10-31T14:04:51;15.60;99.90
59208;DHT22;44977;53.132;6.408;2022-10-31T14:10:27;15.60;99.90
59208;DHT22;44977;53.132;6.408;2022-10-31T14:15:28;15.60;99.90
59208;DHT22;44977;53.132;6.408;2022-10-31T14:25:36;15.60;99.90
59208;DHT22;44977;53.132;6.408;2022-10-31T14:30:37;15.50;99.90
59208;DHT22;44977;53.132;6.408;2022-10-31T14:36:08;15.50;99.90
59208;DHT22;44977;53.132;6.408;2022-10-31T14:52:14;15.40;99.90
59208;DHT22;44977;53.132;6.408;2022-10-31T14:57:25;15.40;99.90
59208;DHT22;44977;53.132;6.408;2022-10-31T15:07:54;15.40;99.90
59208;DHT22;44977;53.132;6.408;2022-10-31T15:12:56;15.30;99.90
59208;DHT22;44977;53.132;6.408;2022-10-31T15:18:16;15.20;99.90
59208;DHT22;44977;53.132;6.408;2022-10-31T15:23:35;15.20;99.90
59208;DHT22;44977;53.132;6.408;2022-10-31T15:28:36;15.10;99.90
59208;DHT22;44977;53.132;6.408;2022-10-31T15:33:41;15.10;99.90
59208;DHT22;44977;53.132;6.408;2022-10-31T15:38:42;15.00;99.90
59208;DHT22;44977;53.132;6.408;2022-10-31T15:43:44;15.00;99.90
59208;DHT22;44977;53.132;6.408;2022-10-31T15:48:47;14.90;99.90
59208;DHT22;44977;53.132;6.408;2022-10-31T15:53:50;14.90;99.90
59208;DHT22;44977;53.132;6.408;2022-10-31T15:58:53;14.90;99.90
59208;DHT22;44977;53.132;6.408;2022-10-31T16:09:04;14.80;99.90
59208;DHT22;44977;53.132;6.408;2022-10-31T16:14:25;14.70;99.90
59208;DHT22;44977;53.132;6.408;2022-10-31T16:19:35;14.70;99.90
59208;DHT22;44977;53.132;6.408;2022-10-31T16:30:46;14.60;99.90
59208;DHT22;44977;53.132;6.408;2022-10-31T16:35:47;14.60;99.90
59208;DHT22;44977;53.132;6.408;2022-10-31T16:40:49;14.50;99.90
59208;DHT22;44977;53.132;6.408;2022-10-31T16:45:51;14.50;99.90
59208;DHT22;44977;53.132;6.408;2022-10-31T16:50:52;14.40;99.90
59208;DHT22;44977;53.132;6.408;2022-10-31T16:55:57;14.40;99.90
59208;DHT22;44977;53.132;6.408;2022-10-31T17:01:04;14.40;99.90
59208;DHT22;44977;53.132;6.408;2022-10-31T17:06:05;14.30;99.90
59208;DHT22;44977;53.132;6.408;2022-10-31T17:11:13;14.30;99.90
59208;DHT22;44977;53.132;6.408;2022-10-31T17:16:15;14.20;99.90
59208;DHT22;44977;53.132;6.408;2022-10-31T17:21:22;14.20;99.90
59208;DHT22;44977;53.132;6.408;2022-10-31T17:26:23;14.20;99.90
59208;DHT22;44977;53.132;6.408;2022-10-31T17:31:28;14.10;99.90
59208;DHT22;44977;53.132;6.408;2022-10-31T17:36:29;14.10;99.90
59208;DHT22;44977;53.132;6.408;2022-10-31T17:41:30;14.10;99.90
59208;DHT22;44977;53.132;6.408;2022-10-31T17:46:31;14.10;99.90
59208;DHT22;44977;53.132;6.408;2022-10-31T17:51:32;14.10;99.90
59208;DHT22;44977;53.132;6.408;2022-10-31T17:56:33;14.10;99.90
59208;DHT22;44977;53.132;6.408;2022-10-31T18:01:33;14.10;99.90
59208;DHT22;44977;53.132;6.408;2022-10-31T18:06:34;14.00;99.90
59208;DHT22;44977;53.132;6.408;2022-10-31T18:11:35;14.00;99.90
59208;DHT22;44977;53.132;6.408;2022-10-31T18:16:36;14.10;99.90
59208;DHT22;44977;53.132;6.408;2022-10-31T18:21:36;14.00;99.90
59208;DHT22;44977;53.132;6.408;2022-10-31T18:26:37;14.00;99.90
59208;DHT22;44977;53.132;6.408;2022-10-31T18:31:39;14.10;99.90
59208;DHT22;44977;53.132;6.408;2022-10-31T18:36:39;14.10;99.90
59208;DHT22;44977;53.132;6.408;2022-10-31T18:41:41;14.00;99.90
59208;DHT22;44977;53.132;6.408;2022-10-31T18:46:41;14.00;99.90
59208;DHT22;44977;53.132;6.408;2022-10-31T18:51:42;14.00;99.90
59208;DHT22;44977;53.132;6.408;2022-10-31T18:56:43;14.00;99.90
59208;DHT22;44977;53.132;6.408;2022-10-31T19:01:43;13.90;99.90
59208;DHT22;44977;53.132;6.408;2022-10-31T19:06:44;13.90;99.90
59208;DHT22;44977;53.132;6.408;2022-10-31T19:11:45;14.00;99.90
59208;DHT22;44977;53.132;6.408;2022-10-31T19:16:45;14.00;99.90
59208;DHT22;44977;53.132;6.408;2022-10-31T19:21:46;14.00;99.90
59208;DHT22;44977;53.132;6.408;2022-10-31T19:26:47;13.90;99.90
59208;DHT22;44977;53.132;6.408;2022-10-31T19:31:48;13.90;99.90
59208;DHT22;44977;53.132;6.408;2022-10-31T19:36:48;13.90;99.90
59208;DHT22;44977;53.132;6.408;2022-10-31T19:41:49;13.90;99.90
59208;DHT22;44977;53.132;6.408;2022-10-31T19:46:50;13.90;99.90
59208;DHT22;44977;53.132;6.408;2022-10-31T19:51:50;13.80;99.90
59208;DHT22;44977;53.132;6.408;2022-10-31T19:56:51;13.80;99.90
59208;DHT22;44977;53.132;6.408;2022-10-31T20:01:52;13.80;99.90
59208;DHT22;44977;53.132;6.408;2022-10-31T20:06:53;13.70;99.90
59208;DHT22;44977;53.132;6.408;2022-10-31T20:11:53;13.70;99.90
59208;DHT22;44977;53.132;6.408;2022-10-31T20:16:54;13.70;99.90
59208;DHT22;44977;53.132;6.408;2022-10-31T20:21:55;13.60;99.90
59208;DHT22;44977;53.132;6.408;2022-10-31T20:26:55;13.60;99.90
59208;DHT22;44977;53.132;6.408;2022-10-31T20:31:56;13.50;99.90
59208;DHT22;44977;53.132;6.408;2022-10-31T20:36:57;13.50;99.90
59208;DHT22;44977;53.132;6.408;2022-10-31T20:41:57;13.50;99.90
59208;DHT22;44977;53.132;6.408;2022-10-31T20:46:58;13.50;99.90
59208;DHT22;44977;53.132;6.408;2022-10-31T20:51:59;13.40;99.90
59208;DHT22;44977;53.132;6.408;2022-10-31T20:56:59;13.40;99.90
59208;DHT22;44977;53.132;6.408;2022-10-31T21:02:00;13.30;99.90
59208;DHT22;44977;53.132;6.408;2022-10-31T21:07:01;13.30;99.90
59208;DHT22;44977;53.132;6.408;2022-10-31T21:12:01;13.20;99.90
59208;DHT22;44977;53.132;6.408;2022-10-31T21:17:03;13.20;99.90
59208;DHT22;44977;53.132;6.408;2022-10-31T21:22:04;13.20;99.90
59208;DHT22;44977;53.132;6.408;2022-10-31T21:27:05;13.20;99.90
59208;DHT22;44977;53.132;6.408;2022-10-31T21:32:06;13.10;99.90
59208;DHT22;44977;53.132;6.408;2022-10-31T21:37:07;13.10;99.90
59208;DHT22;44977;53.132;6.408;2022-10-31T21:42:07;13.20;99.90
59208;DHT22;44977;53.132;6.408;2022-10-31T21:47:08;13.20;99.90
59208;DHT22;44977;53.132;6.408;2022-10-31T21:52:09;13.20;99.90
59208;DHT22;44977;53.132;6.408;2022-10-31T21:57:10;13.20;99.90
59208;DHT22;44977;53.132;6.408;2022-10-31T22:02:10;13.20;99.90
59208;DHT22;44977;53.132;6.408;2022-10-31T22:07:12;13.20;99.90
59208;DHT22;44977;53.132;6.408;2022-10-31T22:12:13;13.20;99.90
59208;DHT22;44977;53.132;6.408;2022-10-31T22:17:14;13.30;99.90
59208;DHT22;44977;53.132;6.408;2022-10-31T22:22:15;13.30;99.90
59208;DHT22;44977;53.132;6.408;2022-10-31T22:27:15;13.30;99.90
59208;DHT22;44977;53.132;6.408;2022-10-31T22:32:16;13.40;99.90
59208;DHT22;44977;53.132;6.408;2022-10-31T22:37:17;13.40;99.90
59208;DHT22;44977;53.132;6.408;2022-10-31T22:42:17;13.40;99.90
59208;DHT22;44977;53.132;6.408;2022-10-31T22:47:18;13.50;99.90
59208;DHT22;44977;53.132;6.408;2022-10-31T22:52:19;13.60;99.90
59208;DHT22;44977;53.132;6.408;2022-10-31T22:57:19;13.60;99.90
59208;DHT22;44977;53.132;6.408;2022-10-31T23:02:20;13.60;99.90
59208;DHT22;44977;53.132;6.408;2022-10-31T23:07:21;13.70;99.90
59208;DHT22;44977;53.132;6.408;2022-10-31T23:12:21;13.70;99.90
59208;DHT22;44977;53.132;6.408;2022-10-31T23:17:40;13.80;99.90
59208;DHT22;44977;53.132;6.408;2022-10-31T23:22:41;13.80;99.90
59208;DHT22;44977;53.132;6.408;2022-10-31T23:27:42;13.70;99.90
59208;DHT22;44977;53.132;6.408;2022-10-31T23:32:42;13.70;99.90
59208;DHT22;44977;53.132;6.408;2022-10-31T23:37:43;13.80;99.90
59208;DHT22;44977;53.132;6.408;2022-10-31T23:42:44;13.80;99.90
59208;DHT22;44977;53.132;6.408;2022-10-31T23:47:44;13.90;99.90
59208;DHT22;44977;53.132;6.408;2022-10-31T23:52:45;13.90;99.90
59208;DHT22;44977;53.132;6.408;2022-10-31T23:57:46;13.90;99.90
